sensor_id;sensor_type;location;lat;lon;timestamp;P1;durP1;ratioP1;P2;durP2;ratioP2
7527;SDS011;3805;49.006;8.514;2023-02-01T00:02:42;10.17;;;8.23;;
7527;SDS011;3805;49.006;8.514;2023-02-01T00:05:31;10.60;;;8.70;;
7527;SDS011;3805;49.006;8.514;2023-02-01T00:08:21;9.53;;;8.30;;
7527;SDS011;3805;49.006;8.514;2023-02-01T00:11:10;9.83;;;8.30;;
7527;SDS011;3805;49.006;8.514;2023-02-01T00:13:59;9.20;;;7.80;;
7527;SDS011;3805;49.006;8.514;2023-02-01T00:16:48;9.07;;;7.80;;
7527;SDS011;3805;49.006;8.514;2023-02-01T00:19:36;8.43;;;7.60;;
7527;SDS011;3805;49.006;8.514;2023-02-01T00:22:25;10.20;;;6.93;;
7527;SDS011;3805;49.006;8.514;2023-02-01T00:25:15;10.30;;;7.50;;
7527;SDS011;3805;49.006;8.514;2023-02-01T00:28:04;9.23;;;7.63;;
7527;SDS011;3805;49.006;8.514;2023-02-01T00:30:55;8.93;;;8.13;;
7527;SDS011;3805;49.006;8.514;2023-02-01T00:33:46;9.83;;;7.33;;
7527;SDS011;3805;49.006;8.514;2023-02-01T00:36:35;7.53;;;6.73;;
7527;SDS011;3805;49.006;8.514;2023-02-01T00:39:24;7.50;;;6.90;;
7527;SDS011;3805;49.006;8.514;2023-02-01T00:42:13;9.47;;;6.67;;
7527;SDS011;3805;49.006;8.514;2023-02-01T00:45:02;7.77;;;7.03;;
7527;SDS011;3805;49.006;8.514;2023-02-01T00:47:51;7.60;;;6.90;;
7527;SDS011;3805;49.006;8.514;2023-02-01T00:50:41;7.90;;;6.93;;
7527;SDS011;3805;49.006;8.514;2023-02-01T00:53:29;6.83;;;6.13;;
7527;SDS011;3805;49.006;8.514;2023-02-01T00:56:18;6.73;;;5.90;;
7527;SDS011;3805;49.006;8.514;2023-02-01T00:59:10;6.63;;;5.90;;
7527;SDS011;3805;49.006;8.514;2023-02-01T01:01:58;6.33;;;5.83;;
7527;SDS011;3805;49.006;8.514;2023-02-01T01:04:47;6.73;;;6.10;;
7527;SDS011;3805;49.006;8.514;2023-02-01T01:07:36;7.70;;;6.67;;
7527;SDS011;3805;49.006;8.514;2023-02-01T01:10:24;6.43;;;5.83;;
7527;SDS011;3805;49.006;8.514;2023-02-01T01:13:13;7.77;;;5.63;;
7527;SDS011;3805;49.006;8.514;2023-02-01T01:16:03;6.97;;;5.50;;
7527;SDS011;3805;49.006;8.514;2023-02-01T01:18:53;7.00;;;6.37;;
7527;SDS011;3805;49.006;8.514;2023-02-01T01:21:42;6.80;;;6.23;;
7527;SDS011;3805;49.006;8.514;2023-02-01T01:24:31;6.23;;;5.20;;
7527;SDS011;3805;49.006;8.514;2023-02-01T01:27:19;6.57;;;5.80;;
7527;SDS011;3805;49.006;8.514;2023-02-01T01:30:11;6.43;;;5.83;;
7527;SDS011;3805;49.006;8.514;2023-02-01T01:33:01;6.50;;;5.90;;
7527;SDS011;3805;49.006;8.514;2023-02-01T01:35:50;6.50;;;5.97;;
7527;SDS011;3805;49.006;8.514;2023-02-01T01:38:38;5.90;;;5.30;;
7527;SDS011;3805;49.006;8.514;2023-02-01T01:41:28;7.63;;;7.07;;
7527;SDS011;3805;49.006;8.514;2023-02-01T01:47:54;6.63;;;6.00;;
7527;SDS011;3805;49.006;8.514;2023-02-01T01:50:46;8.10;;;6.67;;
7527;SDS011;3805;49.006;8.514;2023-02-01T01:53:37;9.50;;;6.47;;
7527;SDS011;3805;49.006;8.514;2023-02-01T01:56:37;8.73;;;6.77;;
7527;SDS011;3805;49.006;8.514;2023-02-01T01:59:27;7.07;;;6.47;;
7527;SDS011;3805;49.006;8.514;2023-02-01T02:02:15;6.83;;;6.23;;
7527;SDS011;3805;49.006;8.514;2023-02-01T02:05:04;9.90;;;6.73;;
7527;SDS011;3805;49.006;8.514;2023-02-01T02:07:56;7.57;;;6.77;;
7527;SDS011;3805;49.006;8.514;2023-02-01T02:10:45;7.70;;;6.30;;
7527;SDS011;3805;49.006;8.514;2023-02-01T02:13:50;7.40;;;6.07;;
7527;SDS011;3805;49.006;8.514;2023-02-01T02:16:44;7.17;;;6.33;;
7527;SDS011;3805;49.006;8.514;2023-02-01T02:19:45;7.07;;;6.37;;
7527;SDS011;3805;49.006;8.514;2023-02-01T02:22:48;7.07;;;6.50;;
7527;SDS011;3805;49.006;8.514;2023-02-01T02:26:08;7.30;;;6.60;;
7527;SDS011;3805;49.006;8.514;2023-02-01T02:29:24;6.80;;;6.20;;
7527;SDS011;3805;49.006;8.514;2023-02-01T02:32:48;6.40;;;5.80;;
7527;SDS011;3805;49.006;8.514;2023-02-01T02:36:03;6.30;;;5.57;;
7527;SDS011;3805;49.006;8.514;2023-02-01T02:38:56;6.20;;;5.60;;
7527;SDS011;3805;49.006;8.514;2023-02-01T02:41:50;8.97;;;5.50;;
7527;SDS011;3805;49.006;8.514;2023-02-01T02:45:03;8.73;;;5.80;;
7527;SDS011;3805;49.006;8.514;2023-02-01T02:48:15;6.00;;;5.47;;
7527;SDS011;3805;49.006;8.514;2023-02-01T02:51:07;7.57;;;6.93;;
7527;SDS011;3805;49.006;8.514;2023-02-01T02:54:17;5.80;;;5.30;;
7527;SDS011;3805;49.006;8.514;2023-02-01T02:57:24;6.30;;;5.70;;
7527;SDS011;3805;49.006;8.514;2023-02-01T03:00:32;6.27;;;5.70;;
7527;SDS011;3805;49.006;8.514;2023-02-01T03:03:40;5.80;;;5.30;;
7527;SDS011;3805;49.006;8.514;2023-02-01T03:06:46;6.40;;;5.73;;
7527;SDS011;3805;49.006;8.514;2023-02-01T03:09:35;6.10;;;5.53;;
7527;SDS011;3805;49.006;8.514;2023-02-01T03:12:25;6.80;;;6.10;;
7527;SDS011;3805;49.006;8.514;2023-02-01T03:15:32;6.67;;;6.07;;
7527;SDS011;3805;49.006;8.514;2023-02-01T03:18:25;5.87;;;5.27;;
7527;SDS011;3805;49.006;8.514;2023-02-01T03:21:20;7.17;;;6.47;;
7527;SDS011;3805;49.006;8.514;2023-02-01T03:24:12;6.57;;;5.97;;
7527;SDS011;3805;49.006;8.514;2023-02-01T03:27:05;7.23;;;6.63;;
7527;SDS011;3805;49.006;8.514;2023-02-01T03:29:56;6.70;;;6.10;;
7527;SDS011;3805;49.006;8.514;2023-02-01T03:32:48;6.80;;;6.20;;
7527;SDS011;3805;49.006;8.514;2023-02-01T03:35:48;8.43;;;6.90;;
7527;SDS011;3805;49.006;8.514;2023-02-01T03:38:44;7.47;;;6.77;;
7527;SDS011;3805;49.006;8.514;2023-02-01T03:41:37;6.70;;;6.10;;
7527;SDS011;3805;49.006;8.514;2023-02-01T03:44:29;9.47;;;6.63;;
7527;SDS011;3805;49.006;8.514;2023-02-01T03:47:20;7.60;;;5.93;;
7527;SDS011;3805;49.006;8.514;2023-02-01T03:50:10;7.20;;;6.70;;
7527;SDS011;3805;49.006;8.514;2023-02-01T03:53:03;6.80;;;6.27;;
7527;SDS011;3805;49.006;8.514;2023-02-01T03:55:55;5.77;;;5.17;;
7527;SDS011;3805;49.006;8.514;2023-02-01T03:58:44;7.90;;;7.20;;
7527;SDS011;3805;49.006;8.514;2023-02-01T04:01:45;7.53;;;6.10;;
7527;SDS011;3805;49.006;8.514;2023-02-01T04:04:34;6.67;;;6.03;;
7527;SDS011;3805;49.006;8.514;2023-02-01T04:07:22;6.50;;;5.90;;
7527;SDS011;3805;49.006;8.514;2023-02-01T04:10:11;6.20;;;5.60;;
7527;SDS011;3805;49.006;8.514;2023-02-01T04:13:01;7.63;;;6.47;;
7527;SDS011;3805;49.006;8.514;2023-02-01T04:15:50;5.90;;;5.40;;
7527;SDS011;3805;49.006;8.514;2023-02-01T04:18:38;6.13;;;5.63;;
7527;SDS011;3805;49.006;8.514;2023-02-01T04:21:27;5.30;;;4.90;;
7527;SDS011;3805;49.006;8.514;2023-02-01T04:24:15;6.10;;;5.70;;
7527;SDS011;3805;49.006;8.514;2023-02-01T04:27:04;6.30;;;4.67;;
7527;SDS011;3805;49.006;8.514;2023-02-01T04:29:54;5.37;;;4.93;;
7527;SDS011;3805;49.006;8.514;2023-02-01T04:32:44;5.80;;;5.30;;
7527;SDS011;3805;49.006;8.514;2023-02-01T04:35:33;6.47;;;5.97;;
7527;SDS011;3805;49.006;8.514;2023-02-01T04:38:21;5.70;;;5.20;;
7527;SDS011;3805;49.006;8.514;2023-02-01T04:41:10;7.40;;;6.17;;
7527;SDS011;3805;49.006;8.514;2023-02-01T04:43:58;6.23;;;5.67;;
7527;SDS011;3805;49.006;8.514;2023-02-01T04:46:48;5.80;;;5.30;;
7527;SDS011;3805;49.006;8.514;2023-02-01T04:49:37;5.33;;;4.83;;
7527;SDS011;3805;49.006;8.514;2023-02-01T04:52:25;5.37;;;4.87;;
7527;SDS011;3805;49.006;8.514;2023-02-01T04:55:14;5.70;;;5.20;;
7527;SDS011;3805;49.006;8.514;2023-02-01T04:58:02;4.60;;;4.30;;
7527;SDS011;3805;49.006;8.514;2023-02-01T05:00:51;5.30;;;4.90;;
7527;SDS011;3805;49.006;8.514;2023-02-01T05:03:41;5.50;;;4.77;;
7527;SDS011;3805;49.006;8.514;2023-02-01T05:06:29;5.03;;;4.63;;
7527;SDS011;3805;49.006;8.514;2023-02-01T05:09:18;5.33;;;4.50;;
7527;SDS011;3805;49.006;8.514;2023-02-01T05:12:08;6.10;;;4.37;;
7527;SDS011;3805;49.006;8.514;2023-02-01T05:15:14;5.27;;;4.77;;
7527;SDS011;3805;49.006;8.514;2023-02-01T05:18:02;5.43;;;4.93;;
7527;SDS011;3805;49.006;8.514;2023-02-01T05:20:53;5.43;;;5.00;;
7527;SDS011;3805;49.006;8.514;2023-02-01T05:23:41;7.00;;;4.73;;
7527;SDS011;3805;49.006;8.514;2023-02-01T05:26:47;6.80;;;5.77;;
7527;SDS011;3805;49.006;8.514;2023-02-01T05:29:36;5.10;;;4.57;;
7527;SDS011;3805;49.006;8.514;2023-02-01T05:32:25;5.13;;;4.83;;
7527;SDS011;3805;49.006;8.514;2023-02-01T05:35:13;7.03;;;4.97;;
7527;SDS011;3805;49.006;8.514;2023-02-01T05:38:03;7.63;;;5.53;;
7527;SDS011;3805;49.006;8.514;2023-02-01T05:40:52;4.27;;;3.93;;
7527;SDS011;3805;49.006;8.514;2023-02-01T05:43:40;6.33;;;5.80;;
7527;SDS011;3805;49.006;8.514;2023-02-01T05:46:29;6.57;;;5.07;;
7527;SDS011;3805;49.006;8.514;2023-02-01T05:49:17;5.60;;;5.10;;
7527;SDS011;3805;49.006;8.514;2023-02-01T05:52:06;7.90;;;4.93;;
7527;SDS011;3805;49.006;8.514;2023-02-01T05:54:56;6.20;;;5.70;;
7527;SDS011;3805;49.006;8.514;2023-02-01T05:57:44;7.30;;;6.60;;
7527;SDS011;3805;49.006;8.514;2023-02-01T06:00:33;6.23;;;4.83;;
7527;SDS011;3805;49.006;8.514;2023-02-01T06:03:21;7.00;;;6.37;;
7527;SDS011;3805;49.006;8.514;2023-02-01T06:06:10;7.40;;;5.87;;
7527;SDS011;3805;49.006;8.514;2023-02-01T06:08:58;6.17;;;5.53;;
7527;SDS011;3805;49.006;8.514;2023-02-01T06:11:48;6.40;;;5.50;;
7527;SDS011;3805;49.006;8.514;2023-02-01T06:14:37;5.70;;;5.30;;
7527;SDS011;3805;49.006;8.514;2023-02-01T06:17:25;6.00;;;5.50;;
7527;SDS011;3805;49.006;8.514;2023-02-01T06:20:14;5.50;;;5.00;;
7527;SDS011;3805;49.006;8.514;2023-02-01T06:23:03;6.83;;;5.57;;
7527;SDS011;3805;49.006;8.514;2023-02-01T06:25:52;5.83;;;5.30;;
7527;SDS011;3805;49.006;8.514;2023-02-01T06:28:48;6.20;;;5.40;;
7527;SDS011;3805;49.006;8.514;2023-02-01T06:31:38;6.10;;;5.50;;
7527;SDS011;3805;49.006;8.514;2023-02-01T06:34:26;5.63;;;5.23;;
7527;SDS011;3805;49.006;8.514;2023-02-01T06:37:15;7.00;;;5.33;;
7527;SDS011;3805;49.006;8.514;2023-02-01T06:40:04;8.53;;;5.70;;
7527;SDS011;3805;49.006;8.514;2023-02-01T06:42:53;6.63;;;6.03;;
7527;SDS011;3805;49.006;8.514;2023-02-01T06:45:43;5.70;;;5.20;;
7527;SDS011;3805;49.006;8.514;2023-02-01T06:48:32;8.60;;;5.60;;
7527;SDS011;3805;49.006;8.514;2023-02-01T06:51:21;6.30;;;5.70;;
7527;SDS011;3805;49.006;8.514;2023-02-01T06:54:11;6.47;;;6.00;;
7527;SDS011;3805;49.006;8.514;2023-02-01T06:57:00;6.93;;;5.50;;
7527;SDS011;3805;49.006;8.514;2023-02-01T06:59:48;6.70;;;6.10;;
7527;SDS011;3805;49.006;8.514;2023-02-01T07:02:38;5.23;;;4.83;;
7527;SDS011;3805;49.006;8.514;2023-02-01T07:05:27;6.40;;;5.90;;
7527;SDS011;3805;49.006;8.514;2023-02-01T07:08:15;5.67;;;5.27;;
7527;SDS011;3805;49.006;8.514;2023-02-01T07:11:04;6.83;;;6.10;;
7527;SDS011;3805;49.006;8.514;2023-02-01T07:13:53;7.60;;;5.63;;
7527;SDS011;3805;49.006;8.514;2023-02-01T07:16:42;7.43;;;6.03;;
7527;SDS011;3805;49.006;8.514;2023-02-01T07:19:32;9.67;;;6.20;;
7527;SDS011;3805;49.006;8.514;2023-02-01T07:22:20;7.67;;;6.10;;
7527;SDS011;3805;49.006;8.514;2023-02-01T07:25:09;7.07;;;6.30;;
7527;SDS011;3805;49.006;8.514;2023-02-01T07:27:57;7.17;;;6.27;;
7527;SDS011;3805;49.006;8.514;2023-02-01T07:30:46;8.13;;;6.33;;
7527;SDS011;3805;49.006;8.514;2023-02-01T07:33:37;8.23;;;6.47;;
7527;SDS011;3805;49.006;8.514;2023-02-01T07:36:27;11.40;;;7.17;;
7527;SDS011;3805;49.006;8.514;2023-02-01T07:39:16;7.27;;;5.87;;
7527;SDS011;3805;49.006;8.514;2023-02-01T07:42:05;7.03;;;6.20;;
7527;SDS011;3805;49.006;8.514;2023-02-01T07:44:54;7.10;;;6.40;;
7527;SDS011;3805;49.006;8.514;2023-02-01T07:47:47;7.00;;;6.10;;
7527;SDS011;3805;49.006;8.514;2023-02-01T07:50:36;6.77;;;6.07;;
7527;SDS011;3805;49.006;8.514;2023-02-01T07:53:25;6.97;;;5.43;;
7527;SDS011;3805;49.006;8.514;2023-02-01T07:56:15;8.80;;;6.07;;
7527;SDS011;3805;49.006;8.514;2023-02-01T07:59:04;6.87;;;5.10;;
7527;SDS011;3805;49.006;8.514;2023-02-01T08:01:54;6.33;;;5.67;;
7527;SDS011;3805;49.006;8.514;2023-02-01T08:04:42;12.10;;;6.10;;
7527;SDS011;3805;49.006;8.514;2023-02-01T08:07:31;6.93;;;5.90;;
7527;SDS011;3805;49.006;8.514;2023-02-01T08:10:20;6.53;;;5.20;;
7527;SDS011;3805;49.006;8.514;2023-02-01T08:13:09;5.43;;;4.90;;
7527;SDS011;3805;49.006;8.514;2023-02-01T08:15:58;6.73;;;5.37;;
7527;SDS011;3805;49.006;8.514;2023-02-01T08:18:47;6.67;;;5.57;;
7527;SDS011;3805;49.006;8.514;2023-02-01T08:21:35;4.80;;;4.30;;
7527;SDS011;3805;49.006;8.514;2023-02-01T08:24:24;5.00;;;4.57;;
7527;SDS011;3805;49.006;8.514;2023-02-01T08:27:14;6.40;;;4.30;;
7527;SDS011;3805;49.006;8.514;2023-02-01T08:30:03;7.63;;;5.37;;
7527;SDS011;3805;49.006;8.514;2023-02-01T08:32:53;5.63;;;4.53;;
7527;SDS011;3805;49.006;8.514;2023-02-01T08:35:42;5.13;;;4.73;;
7527;SDS011;3805;49.006;8.514;2023-02-01T08:38:31;5.13;;;4.40;;
7527;SDS011;3805;49.006;8.514;2023-02-01T08:41:20;6.90;;;4.50;;
7527;SDS011;3805;49.006;8.514;2023-02-01T08:44:10;5.70;;;4.90;;
7527;SDS011;3805;49.006;8.514;2023-02-01T08:46:59;5.20;;;4.70;;
7527;SDS011;3805;49.006;8.514;2023-02-01T08:49:47;5.83;;;5.13;;
7527;SDS011;3805;49.006;8.514;2023-02-01T08:52:36;5.43;;;4.93;;
7527;SDS011;3805;49.006;8.514;2023-02-01T08:55:24;7.23;;;4.83;;
7527;SDS011;3805;49.006;8.514;2023-02-01T08:58:13;4.80;;;4.30;;
7527;SDS011;3805;49.006;8.514;2023-02-01T09:01:05;8.67;;;5.77;;
7527;SDS011;3805;49.006;8.514;2023-02-01T09:03:55;7.97;;;5.50;;
7527;SDS011;3805;49.006;8.514;2023-02-01T09:06:44;6.47;;;4.30;;
7527;SDS011;3805;49.006;8.514;2023-02-01T09:09:32;8.00;;;5.10;;
7527;SDS011;3805;49.006;8.514;2023-02-01T09:12:21;6.10;;;5.50;;
7527;SDS011;3805;49.006;8.514;2023-02-01T09:15:10;7.03;;;5.20;;
7527;SDS011;3805;49.006;8.514;2023-02-01T09:18:00;8.33;;;4.53;;
7527;SDS011;3805;49.006;8.514;2023-02-01T09:20:49;6.63;;;4.50;;
7527;SDS011;3805;49.006;8.514;2023-02-01T09:23:38;5.77;;;4.17;;
7527;SDS011;3805;49.006;8.514;2023-02-01T09:26:26;8.60;;;5.40;;
7527;SDS011;3805;49.006;8.514;2023-02-01T09:29:19;8.47;;;5.67;;
7527;SDS011;3805;49.006;8.514;2023-02-01T09:32:07;10.23;;;5.47;;
7527;SDS011;3805;49.006;8.514;2023-02-01T09:34:57;6.70;;;5.17;;
7527;SDS011;3805;49.006;8.514;2023-02-01T09:37:46;4.83;;;4.43;;
7527;SDS011;3805;49.006;8.514;2023-02-01T09:40:35;9.90;;;5.17;;
7527;SDS011;3805;49.006;8.514;2023-02-01T09:43:27;8.43;;;4.80;;
7527;SDS011;3805;49.006;8.514;2023-02-01T09:46:26;7.40;;;4.67;;
7527;SDS011;3805;49.006;8.514;2023-02-01T09:49:17;5.40;;;4.40;;
7527;SDS011;3805;49.006;8.514;2023-02-01T09:52:11;11.17;;;4.83;;
7527;SDS011;3805;49.006;8.514;2023-02-01T09:55:02;5.97;;;5.43;;
7527;SDS011;3805;49.006;8.514;2023-02-01T09:57:53;7.83;;;4.83;;
7527;SDS011;3805;49.006;8.514;2023-02-01T10:00:45;9.47;;;5.30;;
7527;SDS011;3805;49.006;8.514;2023-02-01T10:03:36;7.23;;;4.70;;
7527;SDS011;3805;49.006;8.514;2023-02-01T10:06:30;8.20;;;5.23;;
7527;SDS011;3805;49.006;8.514;2023-02-01T10:09:32;7.10;;;5.47;;
7527;SDS011;3805;49.006;8.514;2023-02-01T10:15:46;8.23;;;4.90;;
7527;SDS011;3805;49.006;8.514;2023-02-01T10:18:49;6.07;;;4.70;;
7527;SDS011;3805;49.006;8.514;2023-02-01T10:21:46;11.43;;;5.97;;
7527;SDS011;3805;49.006;8.514;2023-02-01T10:24:41;10.87;;;6.00;;
7527;SDS011;3805;49.006;8.514;2023-02-01T10:27:32;8.17;;;5.03;;
7527;SDS011;3805;49.006;8.514;2023-02-01T10:30:23;5.97;;;4.30;;
7527;SDS011;3805;49.006;8.514;2023-02-01T10:33:14;7.80;;;5.60;;
7527;SDS011;3805;49.006;8.514;2023-02-01T10:36:05;9.53;;;4.90;;
7527;SDS011;3805;49.006;8.514;2023-02-01T10:39:00;8.03;;;5.17;;
7527;SDS011;3805;49.006;8.514;2023-02-01T10:41:52;13.97;;;5.40;;
7527;SDS011;3805;49.006;8.514;2023-02-01T10:44:43;12.70;;;5.10;;
7527;SDS011;3805;49.006;8.514;2023-02-01T10:47:34;5.70;;;4.40;;
7527;SDS011;3805;49.006;8.514;2023-02-01T10:50:28;8.03;;;5.20;;
7527;SDS011;3805;49.006;8.514;2023-02-01T10:53:23;9.43;;;5.23;;
7527;SDS011;3805;49.006;8.514;2023-02-01T10:56:13;10.90;;;4.30;;
7527;SDS011;3805;49.006;8.514;2023-02-01T10:59:04;6.57;;;5.47;;
7527;SDS011;3805;49.006;8.514;2023-02-01T11:01:58;9.43;;;5.30;;
7527;SDS011;3805;49.006;8.514;2023-02-01T11:04:47;10.80;;;5.33;;
7527;SDS011;3805;49.006;8.514;2023-02-01T11:07:36;8.57;;;4.70;;
7527;SDS011;3805;49.006;8.514;2023-02-01T11:10:35;11.97;;;5.53;;
7527;SDS011;3805;49.006;8.514;2023-02-01T11:13:28;6.30;;;4.37;;
7527;SDS011;3805;49.006;8.514;2023-02-01T11:16:19;11.77;;;5.17;;
7527;SDS011;3805;49.006;8.514;2023-02-01T11:19:07;11.27;;;4.77;;
7527;SDS011;3805;49.006;8.514;2023-02-01T11:22:03;8.60;;;5.43;;
7527;SDS011;3805;49.006;8.514;2023-02-01T11:24:52;6.93;;;5.17;;
7527;SDS011;3805;49.006;8.514;2023-02-01T11:27:40;5.40;;;4.20;;
7527;SDS011;3805;49.006;8.514;2023-02-01T11:30:41;6.53;;;4.53;;
7527;SDS011;3805;49.006;8.514;2023-02-01T11:33:33;6.00;;;5.30;;
7527;SDS011;3805;49.006;8.514;2023-02-01T11:36:24;7.27;;;4.70;;
7527;SDS011;3805;49.006;8.514;2023-02-01T11:39:19;7.97;;;5.00;;
7527;SDS011;3805;49.006;8.514;2023-02-01T11:42:13;9.90;;;6.20;;
7527;SDS011;3805;49.006;8.514;2023-02-01T11:45:19;12.90;;;4.70;;
7527;SDS011;3805;49.006;8.514;2023-02-01T11:48:10;7.47;;;5.90;;
7527;SDS011;3805;49.006;8.514;2023-02-01T11:51:18;9.00;;;5.70;;
7527;SDS011;3805;49.006;8.514;2023-02-01T11:54:20;9.40;;;5.10;;
7527;SDS011;3805;49.006;8.514;2023-02-01T11:57:21;9.70;;;5.77;;
7527;SDS011;3805;49.006;8.514;2023-02-01T12:00:25;4.87;;;4.37;;
7527;SDS011;3805;49.006;8.514;2023-02-01T12:03:37;10.03;;;5.27;;
7527;SDS011;3805;49.006;8.514;2023-02-01T12:06:39;9.80;;;4.57;;
7527;SDS011;3805;49.006;8.514;2023-02-01T12:09:40;5.57;;;4.97;;
7527;SDS011;3805;49.006;8.514;2023-02-01T12:12:42;9.43;;;4.87;;
7527;SDS011;3805;49.006;8.514;2023-02-01T12:15:36;11.33;;;5.33;;
7527;SDS011;3805;49.006;8.514;2023-02-01T12:18:41;8.33;;;5.60;;
7527;SDS011;3805;49.006;8.514;2023-02-01T12:21:46;7.57;;;4.50;;
7527;SDS011;3805;49.006;8.514;2023-02-01T12:24:54;8.80;;;4.83;;
7527;SDS011;3805;49.006;8.514;2023-02-01T12:28:13;8.00;;;5.07;;
7527;SDS011;3805;49.006;8.514;2023-02-01T12:31:26;7.63;;;5.50;;
7527;SDS011;3805;49.006;8.514;2023-02-01T12:34:29;9.60;;;5.90;;
7527;SDS011;3805;49.006;8.514;2023-02-01T12:37:39;4.97;;;4.53;;
7527;SDS011;3805;49.006;8.514;2023-02-01T12:40:45;9.13;;;4.80;;
7527;SDS011;3805;49.006;8.514;2023-02-01T12:43:44;12.00;;;4.70;;
7527;SDS011;3805;49.006;8.514;2023-02-01T12:46:35;8.63;;;5.20;;
7527;SDS011;3805;49.006;8.514;2023-02-01T12:49:28;7.13;;;4.20;;
7527;SDS011;3805;49.006;8.514;2023-02-01T12:52:26;9.53;;;5.07;;
7527;SDS011;3805;49.006;8.514;2023-02-01T12:55:24;10.23;;;5.20;;
7527;SDS011;3805;49.006;8.514;2023-02-01T12:58:13;8.73;;;5.00;;
7527;SDS011;3805;49.006;8.514;2023-02-01T13:01:05;9.30;;;5.27;;
7527;SDS011;3805;49.006;8.514;2023-02-01T13:03:57;11.50;;;5.73;;
7527;SDS011;3805;49.006;8.514;2023-02-01T13:06:53;10.33;;;5.10;;
7527;SDS011;3805;49.006;8.514;2023-02-01T13:09:46;10.00;;;5.80;;
7527;SDS011;3805;49.006;8.514;2023-02-01T13:12:40;10.17;;;4.90;;
7527;SDS011;3805;49.006;8.514;2023-02-01T13:15:33;7.53;;;4.90;;
7527;SDS011;3805;49.006;8.514;2023-02-01T13:18:26;12.33;;;5.60;;
7527;SDS011;3805;49.006;8.514;2023-02-01T13:21:25;6.60;;;4.70;;
7527;SDS011;3805;49.006;8.514;2023-02-01T13:24:20;10.73;;;4.57;;
7527;SDS011;3805;49.006;8.514;2023-02-01T13:27:15;14.90;;;6.40;;
7527;SDS011;3805;49.006;8.514;2023-02-01T13:30:07;9.10;;;4.83;;
7527;SDS011;3805;49.006;8.514;2023-02-01T13:33:05;9.33;;;4.37;;
7527;SDS011;3805;49.006;8.514;2023-02-01T13:36:45;7.70;;;4.93;;
7527;SDS011;3805;49.006;8.514;2023-02-01T13:39:45;14.83;;;5.30;;
7527;SDS011;3805;49.006;8.514;2023-02-01T13:42:42;7.20;;;4.97;;
7527;SDS011;3805;49.006;8.514;2023-02-01T13:45:37;12.53;;;4.63;;
7527;SDS011;3805;49.006;8.514;2023-02-01T13:48:33;11.13;;;6.20;;
7527;SDS011;3805;49.006;8.514;2023-02-01T13:51:35;13.53;;;5.40;;
7527;SDS011;3805;49.006;8.514;2023-02-01T13:54:26;14.37;;;5.13;;
7527;SDS011;3805;49.006;8.514;2023-02-01T13:57:33;12.60;;;5.70;;
7527;SDS011;3805;49.006;8.514;2023-02-01T14:00:24;10.57;;;5.80;;
7527;SDS011;3805;49.006;8.514;2023-02-01T14:03:19;6.90;;;5.13;;
7527;SDS011;3805;49.006;8.514;2023-02-01T14:06:17;8.83;;;6.30;;
7527;SDS011;3805;49.006;8.514;2023-02-01T14:09:16;8.40;;;5.13;;
7527;SDS011;3805;49.006;8.514;2023-02-01T14:15:36;9.70;;;5.80;;
7527;SDS011;3805;49.006;8.514;2023-02-01T14:21:46;8.10;;;5.00;;
7527;SDS011;3805;49.006;8.514;2023-02-01T14:24:36;12.10;;;5.93;;
7527;SDS011;3805;49.006;8.514;2023-02-01T14:27:26;14.70;;;6.57;;
7527;SDS011;3805;49.006;8.514;2023-02-01T14:30:16;9.90;;;5.10;;
7527;SDS011;3805;49.006;8.514;2023-02-01T14:33:11;13.17;;;5.33;;
7527;SDS011;3805;49.006;8.514;2023-02-01T14:36:07;14.77;;;5.73;;
7527;SDS011;3805;49.006;8.514;2023-02-01T14:38:57;13.77;;;5.17;;
7527;SDS011;3805;49.006;8.514;2023-02-01T14:41:46;11.03;;;4.93;;
7527;SDS011;3805;49.006;8.514;2023-02-01T14:44:36;11.93;;;5.67;;
7527;SDS011;3805;49.006;8.514;2023-02-01T14:47:28;12.10;;;5.37;;
7527;SDS011;3805;49.006;8.514;2023-02-01T14:50:30;10.10;;;4.90;;
7527;SDS011;3805;49.006;8.514;2023-02-01T14:53:25;11.73;;;5.10;;
7527;SDS011;3805;49.006;8.514;2023-02-01T14:56:17;16.93;;;6.20;;
7527;SDS011;3805;49.006;8.514;2023-02-01T14:59:11;11.73;;;5.50;;
7527;SDS011;3805;49.006;8.514;2023-02-01T15:02:02;10.43;;;5.70;;
7527;SDS011;3805;49.006;8.514;2023-02-01T15:05:16;13.67;;;5.83;;
7527;SDS011;3805;49.006;8.514;2023-02-01T15:08:13;11.40;;;5.60;;
7527;SDS011;3805;49.006;8.514;2023-02-01T15:11:08;11.83;;;5.17;;
7527;SDS011;3805;49.006;8.514;2023-02-01T15:14:00;15.13;;;5.13;;
7527;SDS011;3805;49.006;8.514;2023-02-01T15:16:48;11.23;;;5.50;;
7527;SDS011;3805;49.006;8.514;2023-02-01T15:19:40;11.27;;;5.13;;
7527;SDS011;3805;49.006;8.514;2023-02-01T15:22:41;11.87;;;4.90;;
7527;SDS011;3805;49.006;8.514;2023-02-01T15:25:31;16.20;;;4.73;;
7527;SDS011;3805;49.006;8.514;2023-02-01T15:28:22;8.40;;;6.17;;
7527;SDS011;3805;49.006;8.514;2023-02-01T15:31:11;27.90;;;5.70;;
7527;SDS011;3805;49.006;8.514;2023-02-01T15:34:01;15.57;;;5.07;;
7527;SDS011;3805;49.006;8.514;2023-02-01T15:36:49;14.57;;;6.20;;
7527;SDS011;3805;49.006;8.514;2023-02-01T15:40:03;12.70;;;5.60;;
7527;SDS011;3805;49.006;8.514;2023-02-01T15:42:55;13.30;;;6.00;;
7527;SDS011;3805;49.006;8.514;2023-02-01T15:45:46;12.13;;;4.47;;
7527;SDS011;3805;49.006;8.514;2023-02-01T15:48:37;15.67;;;5.20;;
7527;SDS011;3805;49.006;8.514;2023-02-01T15:51:28;15.03;;;5.83;;
7527;SDS011;3805;49.006;8.514;2023-02-01T15:54:20;14.00;;;4.47;;
7527;SDS011;3805;49.006;8.514;2023-02-01T15:57:12;9.00;;;4.80;;
7527;SDS011;3805;49.006;8.514;2023-02-01T16:00:08;8.80;;;5.70;;
7527;SDS011;3805;49.006;8.514;2023-02-01T16:03:23;12.23;;;5.70;;
7527;SDS011;3805;49.006;8.514;2023-02-01T16:06:26;17.63;;;5.90;;
7527;SDS011;3805;49.006;8.514;2023-02-01T16:09:16;17.20;;;4.90;;
7527;SDS011;3805;49.006;8.514;2023-02-01T16:12:17;12.07;;;4.93;;
7527;SDS011;3805;49.006;8.514;2023-02-01T16:15:11;10.37;;;4.20;;
7527;SDS011;3805;49.006;8.514;2023-02-01T16:18:00;12.93;;;5.60;;
7527;SDS011;3805;49.006;8.514;2023-02-01T16:20:50;15.00;;;5.00;;
7527;SDS011;3805;49.006;8.514;2023-02-01T16:23:38;10.80;;;4.80;;
7527;SDS011;3805;49.006;8.514;2023-02-01T16:26:27;9.90;;;4.60;;
7527;SDS011;3805;49.006;8.514;2023-02-01T16:29:15;9.70;;;4.40;;
7527;SDS011;3805;49.006;8.514;2023-02-01T16:32:04;9.90;;;4.70;;
7527;SDS011;3805;49.006;8.514;2023-02-01T16:34:53;9.20;;;4.73;;
7527;SDS011;3805;49.006;8.514;2023-02-01T16:37:43;9.40;;;5.63;;
7527;SDS011;3805;49.006;8.514;2023-02-01T16:40:31;19.70;;;5.03;;
7527;SDS011;3805;49.006;8.514;2023-02-01T16:43:21;10.17;;;4.57;;
7527;SDS011;3805;49.006;8.514;2023-02-01T16:46:13;9.90;;;4.57;;
7527;SDS011;3805;49.006;8.514;2023-02-01T16:49:03;11.57;;;5.77;;
7527;SDS011;3805;49.006;8.514;2023-02-01T16:51:51;12.97;;;4.93;;
7527;SDS011;3805;49.006;8.514;2023-02-01T16:54:44;9.93;;;5.37;;
7527;SDS011;3805;49.006;8.514;2023-02-01T16:57:32;14.37;;;6.87;;
7527;SDS011;3805;49.006;8.514;2023-02-01T17:00:21;8.17;;;4.67;;
7527;SDS011;3805;49.006;8.514;2023-02-01T17:03:12;9.83;;;4.80;;
7527;SDS011;3805;49.006;8.514;2023-02-01T17:06:03;15.00;;;5.97;;
7527;SDS011;3805;49.006;8.514;2023-02-01T17:08:53;11.10;;;5.40;;
7527;SDS011;3805;49.006;8.514;2023-02-01T17:11:46;9.80;;;5.20;;
7527;SDS011;3805;49.006;8.514;2023-02-01T17:14:36;9.33;;;4.50;;
7527;SDS011;3805;49.006;8.514;2023-02-01T17:17:29;14.93;;;5.13;;
7527;SDS011;3805;49.006;8.514;2023-02-01T17:20:26;7.80;;;4.70;;
7527;SDS011;3805;49.006;8.514;2023-02-01T17:23:15;8.87;;;4.93;;
7527;SDS011;3805;49.006;8.514;2023-02-01T17:26:04;11.63;;;5.20;;
7527;SDS011;3805;49.006;8.514;2023-02-01T17:28:57;14.17;;;5.97;;
7527;SDS011;3805;49.006;8.514;2023-02-01T17:31:46;14.30;;;5.97;;
7527;SDS011;3805;49.006;8.514;2023-02-01T17:34:37;9.10;;;5.00;;
7527;SDS011;3805;49.006;8.514;2023-02-01T17:37:29;9.83;;;5.27;;
7527;SDS011;3805;49.006;8.514;2023-02-01T17:40:19;13.77;;;5.57;;
7527;SDS011;3805;49.006;8.514;2023-02-01T17:43:14;11.57;;;5.63;;
7527;SDS011;3805;49.006;8.514;2023-02-01T17:46:11;10.33;;;5.67;;
7527;SDS011;3805;49.006;8.514;2023-02-01T17:49:01;9.53;;;5.53;;
7527;SDS011;3805;49.006;8.514;2023-02-01T17:51:49;12.10;;;6.40;;
7527;SDS011;3805;49.006;8.514;2023-02-01T17:54:38;12.27;;;5.50;;
7527;SDS011;3805;49.006;8.514;2023-02-01T17:57:27;12.53;;;5.23;;
7527;SDS011;3805;49.006;8.514;2023-02-01T18:00:16;9.50;;;5.33;;
7527;SDS011;3805;49.006;8.514;2023-02-01T18:03:07;14.43;;;5.40;;
7527;SDS011;3805;49.006;8.514;2023-02-01T18:06:10;11.93;;;5.67;;